sensor_id;sensor_type;location;lat;lon;timestamp;P1;durP1;ratioP1;P2;durP2;ratioP2
26040;SDS011;13816;53.628;9.950;2023-07-28T00:04:04;6.37;;;4.57;;
26040;SDS011;13816;53.628;9.950;2023-07-28T00:06:51;4.93;;;4.43;;
26040;SDS011;13816;53.628;9.950;2023-07-28T00:09:22;5.03;;;4.63;;
26040;SDS011;13816;53.628;9.950;2023-07-28T00:16:14;4.77;;;4.37;;
26040;SDS011;13816;53.628;9.950;2023-07-28T00:27:54;6.90;;;5.17;;
26040;SDS011;13816;53.628;9.950;2023-07-28T00:39:11;4.43;;;4.03;;
26040;SDS011;13816;53.628;9.950;2023-07-28T00:45:54;4.90;;;4.40;;
26040;SDS011;13816;53.628;9.950;2023-07-28T00:49:07;4.80;;;4.40;;
26040;SDS011;13816;53.628;9.950;2023-07-28T00:51:42;4.43;;;4.03;;
26040;SDS011;13816;53.628;9.950;2023-07-28T01:11:59;11.50;;;4.30;;
26040;SDS011;13816;53.628;9.950;2023-07-28T01:32:39;4.57;;;4.17;;
26040;SDS011;13816;53.628;9.950;2023-07-28T01:37:14;4.80;;;4.30;;
26040;SDS011;13816;53.628;9.950;2023-07-28T01:41:50;6.07;;;4.53;;
26040;SDS011;13816;53.628;9.950;2023-07-28T01:45:50;4.73;;;4.33;;
26040;SDS011;13816;53.628;9.950;2023-07-28T01:56:27;6.00;;;5.00;;
26040;SDS011;13816;53.628;9.950;2023-07-28T01:59:39;5.83;;;5.00;;
26040;SDS011;13816;53.628;9.950;2023-07-28T02:06:29;5.10;;;4.70;;
26040;SDS011;13816;53.628;9.950;2023-07-28T02:09:00;4.90;;;4.40;;
26040;SDS011;13816;53.628;9.950;2023-07-28T02:11:28;5.40;;;4.90;;
26040;SDS011;13816;53.628;9.950;2023-07-28T02:13:56;5.23;;;4.70;;
26040;SDS011;13816;53.628;9.950;2023-07-28T02:19:34;5.70;;;4.87;;
26040;SDS011;13816;53.628;9.950;2023-07-28T02:35:05;6.50;;;5.60;;
26040;SDS011;13816;53.628;9.950;2023-07-28T02:37:33;6.43;;;5.40;;
26040;SDS011;13816;53.628;9.950;2023-07-28T02:40:00;6.10;;;5.50;;
26040;SDS011;13816;53.628;9.950;2023-07-28T02:42:30;5.37;;;4.87;;
26040;SDS011;13816;53.628;9.950;2023-07-28T02:45:00;5.40;;;4.90;;
26040;SDS011;13816;53.628;9.950;2023-07-28T02:47:28;6.80;;;5.43;;
26040;SDS011;13816;53.628;9.950;2023-07-28T02:49:56;5.73;;;4.90;;
26040;SDS011;13816;53.628;9.950;2023-07-28T02:52:23;5.60;;;4.37;;
26040;SDS011;13816;53.628;9.950;2023-07-28T02:54:50;4.37;;;4.07;;
26040;SDS011;13816;53.628;9.950;2023-07-28T02:57:18;5.00;;;4.30;;
26040;SDS011;13816;53.628;9.950;2023-07-28T02:59:47;4.17;;;3.77;;
26040;SDS011;13816;53.628;9.950;2023-07-28T03:02:21;4.50;;;4.10;;
26040;SDS011;13816;53.628;9.950;2023-07-28T03:04:52;4.10;;;3.80;;
26040;SDS011;13816;53.628;9.950;2023-07-28T03:07:22;3.80;;;3.50;;
26040;SDS011;13816;53.628;9.950;2023-07-28T03:09:58;3.80;;;3.50;;
26040;SDS011;13816;53.628;9.950;2023-07-28T03:12:26;4.20;;;3.80;;
26040;SDS011;13816;53.628;9.950;2023-07-28T03:14:54;4.60;;;3.70;;
26040;SDS011;13816;53.628;9.950;2023-07-28T03:17:22;4.10;;;3.70;;
26040;SDS011;13816;53.628;9.950;2023-07-28T03:19:52;4.13;;;3.73;;
26040;SDS011;13816;53.628;9.950;2023-07-28T03:22:20;3.90;;;3.60;;
26040;SDS011;13816;53.628;9.950;2023-07-28T03:25:00;3.83;;;3.50;;
26040;SDS011;13816;53.628;9.950;2023-07-28T03:27:31;3.93;;;3.63;;
26040;SDS011;13816;53.628;9.950;2023-07-28T03:30:02;3.50;;;3.20;;
26040;SDS011;13816;53.628;9.950;2023-07-28T03:32:33;3.37;;;3.07;;
26040;SDS011;13816;53.628;9.950;2023-07-28T03:35:00;3.47;;;3.17;;
26040;SDS011;13816;53.628;9.950;2023-07-28T03:37:29;3.20;;;3.00;;
26040;SDS011;13816;53.628;9.950;2023-07-28T03:39:57;3.10;;;2.80;;
26040;SDS011;13816;53.628;9.950;2023-07-28T03:42:33;3.10;;;2.90;;
26040;SDS011;13816;53.628;9.950;2023-07-28T03:45:01;2.97;;;2.77;;
26040;SDS011;13816;53.628;9.950;2023-07-28T03:47:31;3.43;;;3.13;;
26040;SDS011;13816;53.628;9.950;2023-07-28T03:50:06;2.77;;;2.57;;
26040;SDS011;13816;53.628;9.950;2023-07-28T03:52:33;3.33;;;3.03;;
26040;SDS011;13816;53.628;9.950;2023-07-28T03:55:01;2.80;;;2.60;;
26040;SDS011;13816;53.628;9.950;2023-07-28T03:57:28;3.20;;;3.00;;
26040;SDS011;13816;53.628;9.950;2023-07-28T03:59:57;3.20;;;2.90;;
26040;SDS011;13816;53.628;9.950;2023-07-28T04:02:25;3.43;;;3.13;;
26040;SDS011;13816;53.628;9.950;2023-07-28T04:04:54;3.00;;;2.70;;
26040;SDS011;13816;53.628;9.950;2023-07-28T04:07:21;3.73;;;3.43;;
26040;SDS011;13816;53.628;9.950;2023-07-28T04:09:49;6.57;;;3.40;;
26040;SDS011;13816;53.628;9.950;2023-07-28T04:12:16;4.67;;;2.90;;
26040;SDS011;13816;53.628;9.950;2023-07-28T04:14:44;3.17;;;2.87;;
26040;SDS011;13816;53.628;9.950;2023-07-28T04:17:11;3.00;;;2.80;;
26040;SDS011;13816;53.628;9.950;2023-07-28T04:19:39;5.13;;;3.60;;
26040;SDS011;13816;53.628;9.950;2023-07-28T04:22:07;4.23;;;3.83;;
26040;SDS011;13816;53.628;9.950;2023-07-28T04:24:36;4.10;;;3.70;;
26040;SDS011;13816;53.628;9.950;2023-07-28T04:27:03;4.87;;;4.47;;
26040;SDS011;13816;53.628;9.950;2023-07-28T04:29:31;4.00;;;3.70;;
26040;SDS011;13816;53.628;9.950;2023-07-28T04:31:59;8.57;;;4.13;;
26040;SDS011;13816;53.628;9.950;2023-07-28T04:34:32;4.13;;;3.83;;
26040;SDS011;13816;53.628;9.950;2023-07-28T04:37:12;4.80;;;4.40;;
26040;SDS011;13816;53.628;9.950;2023-07-28T04:40:05;3.50;;;3.20;;
26040;SDS011;13816;53.628;9.950;2023-07-28T04:42:37;4.40;;;4.00;;
26040;SDS011;13816;53.628;9.950;2023-07-28T04:45:10;4.60;;;4.20;;
26040;SDS011;13816;53.628;9.950;2023-07-28T04:47:39;6.13;;;4.00;;
26040;SDS011;13816;53.628;9.950;2023-07-28T04:50:08;4.77;;;4.37;;
26040;SDS011;13816;53.628;9.950;2023-07-28T04:52:56;4.60;;;4.13;;
26040;SDS011;13816;53.628;9.950;2023-07-28T04:55:55;4.70;;;4.30;;
26040;SDS011;13816;53.628;9.950;2023-07-28T04:58:22;5.00;;;4.23;;
26040;SDS011;13816;53.628;9.950;2023-07-28T05:00:52;4.97;;;4.30;;
26040;SDS011;13816;53.628;9.950;2023-07-28T05:03:20;4.87;;;4.40;;
26040;SDS011;13816;53.628;9.950;2023-07-28T05:05:55;4.50;;;4.10;;
26040;SDS011;13816;53.628;9.950;2023-07-28T05:08:23;5.43;;;4.93;;
26040;SDS011;13816;53.628;9.950;2023-07-28T05:10:51;4.80;;;4.40;;
26040;SDS011;13816;53.628;9.950;2023-07-28T05:13:19;4.33;;;4.03;;
26040;SDS011;13816;53.628;9.950;2023-07-28T05:15:53;8.70;;;4.80;;
26040;SDS011;13816;53.628;9.950;2023-07-28T05:18:41;3.93;;;3.63;;
26040;SDS011;13816;53.628;9.950;2023-07-28T05:21:33;4.47;;;4.07;;
26040;SDS011;13816;53.628;9.950;2023-07-28T05:24:01;4.57;;;4.17;;
26040;SDS011;13816;53.628;9.950;2023-07-28T05:26:30;4.10;;;3.70;;
26040;SDS011;13816;53.628;9.950;2023-07-28T05:28:58;4.07;;;3.63;;
26040;SDS011;13816;53.628;9.950;2023-07-28T05:31:27;5.70;;;4.10;;
26040;SDS011;13816;53.628;9.950;2023-07-28T05:33:54;4.10;;;3.80;;
26040;SDS011;13816;53.628;9.950;2023-07-28T05:36:22;3.97;;;3.57;;
26040;SDS011;13816;53.628;9.950;2023-07-28T05:38:55;4.87;;;4.47;;
26040;SDS011;13816;53.628;9.950;2023-07-28T05:41:26;4.67;;;4.27;;
26040;SDS011;13816;53.628;9.950;2023-07-28T05:43:54;9.23;;;5.10;;
26040;SDS011;13816;53.628;9.950;2023-07-28T05:46:22;6.80;;;4.53;;
26040;SDS011;13816;53.628;9.950;2023-07-28T05:48:53;4.90;;;4.43;;
26040;SDS011;13816;53.628;9.950;2023-07-28T05:51:22;4.50;;;3.83;;
26040;SDS011;13816;53.628;9.950;2023-07-28T05:53:50;4.43;;;4.03;;
26040;SDS011;13816;53.628;9.950;2023-07-28T05:56:19;4.63;;;4.23;;
26040;SDS011;13816;53.628;9.950;2023-07-28T05:58:48;5.00;;;4.60;;
26040;SDS011;13816;53.628;9.950;2023-07-28T06:01:16;4.17;;;3.77;;
26040;SDS011;13816;53.628;9.950;2023-07-28T06:04:04;5.97;;;4.13;;
26040;SDS011;13816;53.628;9.950;2023-07-28T06:06:39;4.77;;;3.77;;
26040;SDS011;13816;53.628;9.950;2023-07-28T06:09:07;4.73;;;4.33;;
26040;SDS011;13816;53.628;9.950;2023-07-28T06:11:37;4.97;;;4.47;;
26040;SDS011;13816;53.628;9.950;2023-07-28T06:14:05;5.93;;;4.77;;
26040;SDS011;13816;53.628;9.950;2023-07-28T06:16:34;8.87;;;4.60;;
26040;SDS011;13816;53.628;9.950;2023-07-28T06:19:02;4.27;;;3.87;;
26040;SDS011;13816;53.628;9.950;2023-07-28T06:21:33;4.47;;;4.07;;
26040;SDS011;13816;53.628;9.950;2023-07-28T06:24:01;4.20;;;3.80;;
26040;SDS011;13816;53.628;9.950;2023-07-28T06:26:29;7.73;;;4.13;;
26040;SDS011;13816;53.628;9.950;2023-07-28T06:28:56;4.27;;;3.87;;
26040;SDS011;13816;53.628;9.950;2023-07-28T06:31:24;3.77;;;3.47;;
26040;SDS011;13816;53.628;9.950;2023-07-28T06:33:52;3.90;;;3.60;;
26040;SDS011;13816;53.628;9.950;2023-07-28T06:36:22;4.60;;;4.13;;
26040;SDS011;13816;53.628;9.950;2023-07-28T06:38:50;5.77;;;3.50;;
26040;SDS011;13816;53.628;9.950;2023-07-28T06:41:19;4.30;;;3.83;;
26040;SDS011;13816;53.628;9.950;2023-07-28T06:43:52;4.20;;;3.90;;
26040;SDS011;13816;53.628;9.950;2023-07-28T06:46:20;4.23;;;3.10;;
26040;SDS011;13816;53.628;9.950;2023-07-28T06:48:48;3.60;;;3.30;;
26040;SDS011;13816;53.628;9.950;2023-07-28T06:51:16;4.03;;;3.30;;
26040;SDS011;13816;53.628;9.950;2023-07-28T06:53:44;4.33;;;3.93;;
26040;SDS011;13816;53.628;9.950;2023-07-28T06:56:11;6.30;;;4.00;;
26040;SDS011;13816;53.628;9.950;2023-07-28T06:58:39;6.40;;;4.47;;
26040;SDS011;13816;53.628;9.950;2023-07-28T07:01:09;5.50;;;4.10;;
26040;SDS011;13816;53.628;9.950;2023-07-28T07:03:37;4.20;;;3.80;;
26040;SDS011;13816;53.628;9.950;2023-07-28T07:06:05;3.70;;;3.40;;
26040;SDS011;13816;53.628;9.950;2023-07-28T07:08:34;5.87;;;3.93;;
26040;SDS011;13816;53.628;9.950;2023-07-28T07:11:01;4.63;;;4.27;;
26040;SDS011;13816;53.628;9.950;2023-07-28T07:13:30;3.40;;;3.10;;
26040;SDS011;13816;53.628;9.950;2023-07-28T07:15:59;4.47;;;3.30;;
26040;SDS011;13816;53.628;9.950;2023-07-28T07:18:29;5.80;;;2.93;;
26040;SDS011;13816;53.628;9.950;2023-07-28T07:21:01;3.63;;;3.23;;
26040;SDS011;13816;53.628;9.950;2023-07-28T07:23:29;3.60;;;3.30;;
26040;SDS011;13816;53.628;9.950;2023-07-28T07:25:57;3.60;;;3.07;;
26040;SDS011;13816;53.628;9.950;2023-07-28T07:28:24;3.93;;;3.33;;
26040;SDS011;13816;53.628;9.950;2023-07-28T07:30:53;3.30;;;3.00;;
26040;SDS011;13816;53.628;9.950;2023-07-28T07:33:21;3.47;;;3.17;;
26040;SDS011;13816;53.628;9.950;2023-07-28T07:35:49;2.57;;;2.37;;
26040;SDS011;13816;53.628;9.950;2023-07-28T07:38:17;2.60;;;2.40;;
26040;SDS011;13816;53.628;9.950;2023-07-28T07:40:48;3.10;;;2.77;;
26040;SDS011;13816;53.628;9.950;2023-07-28T07:43:15;3.67;;;3.37;;
26040;SDS011;13816;53.628;9.950;2023-07-28T07:45:46;4.37;;;2.60;;
26040;SDS011;13816;53.628;9.950;2023-07-28T07:48:16;4.40;;;2.43;;
26040;SDS011;13816;53.628;9.950;2023-07-28T07:50:45;2.83;;;2.53;;
26040;SDS011;13816;53.628;9.950;2023-07-28T07:53:12;2.70;;;2.40;;
26040;SDS011;13816;53.628;9.950;2023-07-28T07:55:40;4.13;;;2.90;;
26040;SDS011;13816;53.628;9.950;2023-07-28T07:58:08;3.43;;;2.80;;
26040;SDS011;13816;53.628;9.950;2023-07-28T08:00:37;4.13;;;3.00;;
26040;SDS011;13816;53.628;9.950;2023-07-28T08:03:05;3.17;;;2.87;;
26040;SDS011;13816;53.628;9.950;2023-07-28T08:05:32;3.03;;;2.83;;
26040;SDS011;13816;53.628;9.950;2023-07-28T08:08:00;3.20;;;3.00;;
26040;SDS011;13816;53.628;9.950;2023-07-28T08:10:28;3.73;;;2.90;;
26040;SDS011;13816;53.628;9.950;2023-07-28T08:12:55;3.03;;;2.73;;
26040;SDS011;13816;53.628;9.950;2023-07-28T08:15:23;2.93;;;2.73;;
26040;SDS011;13816;53.628;9.950;2023-07-28T08:17:50;3.83;;;2.87;;
26040;SDS011;13816;53.628;9.950;2023-07-28T08:20:19;2.80;;;2.60;;
26040;SDS011;13816;53.628;9.950;2023-07-28T08:22:48;3.73;;;2.60;;
26040;SDS011;13816;53.628;9.950;2023-07-28T08:25:18;3.97;;;2.37;;
26040;SDS011;13816;53.628;9.950;2023-07-28T08:27:48;2.67;;;2.47;;
26040;SDS011;13816;53.628;9.950;2023-07-28T08:30:16;2.90;;;2.40;;
26040;SDS011;13816;53.628;9.950;2023-07-28T08:32:44;3.50;;;2.63;;
26040;SDS011;13816;53.628;9.950;2023-07-28T08:35:15;2.73;;;2.10;;
26040;SDS011;13816;53.628;9.950;2023-07-28T08:37:47;2.50;;;2.30;;
26040;SDS011;13816;53.628;9.950;2023-07-28T08:40:21;3.63;;;2.63;;
26040;SDS011;13816;53.628;9.950;2023-07-28T08:42:51;2.80;;;2.50;;
26040;SDS011;13816;53.628;9.950;2023-07-28T08:45:19;3.10;;;2.80;;
26040;SDS011;13816;53.628;9.950;2023-07-28T08:47:46;2.90;;;2.30;;
26040;SDS011;13816;53.628;9.950;2023-07-28T08:50:14;6.40;;;2.70;;
26040;SDS011;13816;53.628;9.950;2023-07-28T08:52:41;3.97;;;2.80;;
26040;SDS011;13816;53.628;9.950;2023-07-28T08:55:11;3.57;;;3.17;;
26040;SDS011;13816;53.628;9.950;2023-07-28T08:57:39;2.60;;;2.40;;
26040;SDS011;13816;53.628;9.950;2023-07-28T09:00:08;2.13;;;2.03;;
26040;SDS011;13816;53.628;9.950;2023-07-28T09:02:37;2.50;;;2.30;;
26040;SDS011;13816;53.628;9.950;2023-07-28T09:05:05;6.00;;;2.47;;
26040;SDS011;13816;53.628;9.950;2023-07-28T09:07:36;2.63;;;2.43;;
26040;SDS011;13816;53.628;9.950;2023-07-28T09:10:04;2.47;;;2.20;;
26040;SDS011;13816;53.628;9.950;2023-07-28T09:12:32;2.40;;;2.20;;
26040;SDS011;13816;53.628;9.950;2023-07-28T09:15:00;2.70;;;2.50;;
26040;SDS011;13816;53.628;9.950;2023-07-28T09:17:31;3.17;;;2.80;;
26040;SDS011;13816;53.628;9.950;2023-07-28T09:20:00;3.07;;;2.83;;
26040;SDS011;13816;53.628;9.950;2023-07-28T09:22:29;2.20;;;2.00;;
26040;SDS011;13816;53.628;9.950;2023-07-28T09:25:00;6.33;;;2.17;;
26040;SDS011;13816;53.628;9.950;2023-07-28T09:27:38;1.80;;;1.70;;
26040;SDS011;13816;53.628;9.950;2023-07-28T09:30:06;2.07;;;1.97;;
26040;SDS011;13816;53.628;9.950;2023-07-28T09:32:34;2.30;;;2.00;;
26040;SDS011;13816;53.628;9.950;2023-07-28T09:35:07;2.50;;;2.30;;
26040;SDS011;13816;53.628;9.950;2023-07-28T09:37:37;2.50;;;2.10;;
26040;SDS011;13816;53.628;9.950;2023-07-28T09:40:09;2.33;;;2.13;;
26040;SDS011;13816;53.628;9.950;2023-07-28T09:42:39;1.93;;;1.73;;
26040;SDS011;13816;53.628;9.950;2023-07-28T09:45:07;2.33;;;2.13;;
26040;SDS011;13816;53.628;9.950;2023-07-28T09:47:49;3.07;;;2.77;;
26040;SDS011;13816;53.628;9.950;2023-07-28T09:50:18;2.57;;;2.37;;
26040;SDS011;13816;53.628;9.950;2023-07-28T09:52:53;2.30;;;2.10;;
26040;SDS011;13816;53.628;9.950;2023-07-28T09:55:22;2.30;;;1.97;;
26040;SDS011;13816;53.628;9.950;2023-07-28T09:57:51;2.20;;;2.00;;
26040;SDS011;13816;53.628;9.950;2023-07-28T10:00:21;2.27;;;2.07;;
26040;SDS011;13816;53.628;9.950;2023-07-28T10:02:49;2.30;;;2.10;;
26040;SDS011;13816;53.628;9.950;2023-07-28T10:05:18;2.17;;;1.97;;
26040;SDS011;13816;53.628;9.950;2023-07-28T10:07:48;2.00;;;1.90;;
26040;SDS011;13816;53.628;9.950;2023-07-28T10:10:16;2.70;;;2.17;;
26040;SDS011;13816;53.628;9.950;2023-07-28T10:12:48;1.83;;;1.73;;
26040;SDS011;13816;53.628;9.950;2023-07-28T10:15:17;1.73;;;1.60;;
26040;SDS011;13816;53.628;9.950;2023-07-28T10:17:46;1.87;;;1.60;;
26040;SDS011;13816;53.628;9.950;2023-07-28T10:23:05;2.27;;;2.07;;
26040;SDS011;13816;53.628;9.950;2023-07-28T10:25:35;2.33;;;2.00;;
26040;SDS011;13816;53.628;9.950;2023-07-28T10:28:07;2.00;;;1.70;;
26040;SDS011;13816;53.628;9.950;2023-07-28T10:30:53;2.40;;;2.10;;
26040;SDS011;13816;53.628;9.950;2023-07-28T10:33:29;2.60;;;2.40;;
26040;SDS011;13816;53.628;9.950;2023-07-28T10:41:28;3.10;;;2.03;;
26040;SDS011;13816;53.628;9.950;2023-07-28T10:43:58;5.13;;;2.33;;
26040;SDS011;13816;53.628;9.950;2023-07-28T10:46:28;1.90;;;1.80;;
26040;SDS011;13816;53.628;9.950;2023-07-28T10:49:04;2.03;;;1.93;;
26040;SDS011;13816;53.628;9.950;2023-07-28T10:51:33;2.27;;;2.07;;
26040;SDS011;13816;53.628;9.950;2023-07-28T10:54:07;2.00;;;1.90;;
26040;SDS011;13816;53.628;9.950;2023-07-28T10:56:35;2.60;;;2.40;;
26040;SDS011;13816;53.628;9.950;2023-07-28T10:59:06;2.70;;;2.50;;
26040;SDS011;13816;53.628;9.950;2023-07-28T11:01:52;4.90;;;2.80;;
26040;SDS011;13816;53.628;9.950;2023-07-28T11:05:42;2.90;;;2.37;;
26040;SDS011;13816;53.628;9.950;2023-07-28T11:11:58;3.57;;;2.17;;
26040;SDS011;13816;53.628;9.950;2023-07-28T11:14:51;2.40;;;2.10;;
26040;SDS011;13816;53.628;9.950;2023-07-28T11:17:43;2.47;;;2.27;;
26040;SDS011;13816;53.628;9.950;2023-07-28T11:20:46;2.97;;;2.40;;
26040;SDS011;13816;53.628;9.950;2023-07-28T11:24:00;3.30;;;2.43;;
26040;SDS011;13816;53.628;9.950;2023-07-28T11:27:00;1.80;;;1.70;;
26040;SDS011;13816;53.628;9.950;2023-07-28T11:30:18;2.10;;;2.00;;
26040;SDS011;13816;53.628;9.950;2023-07-28T11:33:20;2.07;;;1.97;;
26040;SDS011;13816;53.628;9.950;2023-07-28T11:36:21;2.30;;;2.10;;
26040;SDS011;13816;53.628;9.950;2023-07-28T11:39:33;2.23;;;2.03;;
26040;SDS011;13816;53.628;9.950;2023-07-28T11:42:25;2.03;;;1.93;;
26040;SDS011;13816;53.628;9.950;2023-07-28T11:45:16;2.40;;;2.10;;
26040;SDS011;13816;53.628;9.950;2023-07-28T11:51:57;2.43;;;2.23;;
26040;SDS011;13816;53.628;9.950;2023-07-28T11:54:55;3.97;;;2.93;;
26040;SDS011;13816;53.628;9.950;2023-07-28T11:57:40;3.47;;;2.10;;
26040;SDS011;13816;53.628;9.950;2023-07-28T12:00:32;2.30;;;2.10;;
26040;SDS011;13816;53.628;9.950;2023-07-28T12:03:54;2.03;;;1.93;;
26040;SDS011;13816;53.628;9.950;2023-07-28T12:07:02;2.17;;;1.97;;
26040;SDS011;13816;53.628;9.950;2023-07-28T12:10:03;1.80;;;1.70;;
26040;SDS011;13816;53.628;9.950;2023-07-28T12:49:30;2.80;;;1.60;;
26040;SDS011;13816;53.628;9.950;2023-07-28T12:52:19;1.70;;;1.60;;
26040;SDS011;13816;53.628;9.950;2023-07-28T12:55:30;1.53;;;1.30;;
26040;SDS011;13816;53.628;9.950;2023-07-28T12:58:20;1.70;;;1.60;;
26040;SDS011;13816;53.628;9.950;2023-07-28T13:01:02;1.60;;;1.50;;
26040;SDS011;13816;53.628;9.950;2023-07-28T13:04:12;1.50;;;1.40;;
26040;SDS011;13816;53.628;9.950;2023-07-28T15:35:56;3.27;;;1.17;;
26040;SDS011;13816;53.628;9.950;2023-07-28T15:38:25;1.20;;;1.10;;
26040;SDS011;13816;53.628;9.950;2023-07-28T15:40:53;2.57;;;1.30;;
26040;SDS011;13816;53.628;9.950;2023-07-28T15:43:25;2.13;;;1.30;;
26040;SDS011;13816;53.628;9.950;2023-07-28T15:45:54;0.97;;;0.90;;
26040;SDS011;13816;53.628;9.950;2023-07-28T15:48:24;1.40;;;1.20;;
26040;SDS011;13816;53.628;9.950;2023-07-28T15:50:53;1.60;;;1.37;;
26040;SDS011;13816;53.628;9.950;2023-07-28T15:53:22;1.53;;;1.43;;
26040;SDS011;13816;53.628;9.950;2023-07-28T15:55:50;1.30;;;0.80;;
26040;SDS011;13816;53.628;9.950;2023-07-28T15:58:23;1.67;;;1.47;;
26040;SDS011;13816;53.628;9.950;2023-07-28T16:00:51;2.40;;;1.20;;
26040;SDS011;13816;53.628;9.950;2023-07-28T16:03:19;3.40;;;1.70;;
26040;SDS011;13816;53.628;9.950;2023-07-28T16:05:47;1.30;;;1.00;;
26040;SDS011;13816;53.628;9.950;2023-07-28T16:08:15;1.20;;;1.10;;
26040;SDS011;13816;53.628;9.950;2023-07-28T16:10:44;1.20;;;1.00;;
26040;SDS011;13816;53.628;9.950;2023-07-28T16:13:13;1.83;;;1.40;;
26040;SDS011;13816;53.628;9.950;2023-07-28T16:15:42;1.63;;;1.13;;
26040;SDS011;13816;53.628;9.950;2023-07-28T16:18:14;1.43;;;1.00;;
26040;SDS011;13816;53.628;9.950;2023-07-28T16:20:55;0.93;;;0.93;;
26040;SDS011;13816;53.628;9.950;2023-07-28T16:23:31;1.90;;;1.23;;
26040;SDS011;13816;53.628;9.950;2023-07-28T16:26:00;1.83;;;1.00;;
26040;SDS011;13816;53.628;9.950;2023-07-28T16:28:29;1.40;;;1.20;;
26040;SDS011;13816;53.628;9.950;2023-07-28T16:31:31;1.10;;;1.00;;
26040;SDS011;13816;53.628;9.950;2023-07-28T16:34:28;1.27;;;0.90;;
26040;SDS011;13816;53.628;9.950;2023-07-28T16:37:55;1.00;;;0.93;;
26040;SDS011;13816;53.628;9.950;2023-07-28T16:41:06;2.03;;;1.10;;
26040;SDS011;13816;53.628;9.950;2023-07-28T16:44:12;1.40;;;0.90;;
26040;SDS011;13816;53.628;9.950;2023-07-28T16:47:14;1.27;;;1.10;;
26040;SDS011;13816;53.628;9.950;2023-07-28T16:54:34;1.63;;;1.53;;
26040;SDS011;13816;53.628;9.950;2023-07-28T16:57:48;1.40;;;1.10;;
26040;SDS011;13816;53.628;9.950;2023-07-28T17:04:47;1.47;;;1.37;;
26040;SDS011;13816;53.628;9.950;2023-07-28T17:08:12;1.50;;;1.40;;
26040;SDS011;13816;53.628;9.950;2023-07-28T17:11:49;2.83;;;1.43;;
26040;SDS011;13816;53.628;9.950;2023-07-28T17:15:16;1.53;;;0.90;;
26040;SDS011;13816;53.628;9.950;2023-07-28T17:18:38;2.93;;;1.23;;
26040;SDS011;13816;53.628;9.950;2023-07-28T17:25:48;1.80;;;1.47;;
26040;SDS011;13816;53.628;9.950;2023-07-28T17:29:12;1.20;;;1.10;;
26040;SDS011;13816;53.628;9.950;2023-07-28T17:32:40;1.47;;;1.37;;
26040;SDS011;13816;53.628;9.950;2023-07-28T17:35:38;1.73;;;1.20;;
26040;SDS011;13816;53.628;9.950;2023-07-28T17:38:36;3.00;;;0.93;;
26040;SDS011;13816;53.628;9.950;2023-07-28T17:41:26;1.40;;;1.23;;
26040;SDS011;13816;53.628;9.950;2023-07-28T17:44:37;1.87;;;1.30;;
26040;SDS011;13816;53.628;9.950;2023-07-28T17:50:42;3.40;;;1.30;;
26040;SDS011;13816;53.628;9.950;2023-07-28T17:53:31;3.80;;;1.40;;
26040;SDS011;13816;53.628;9.950;2023-07-28T17:56:13;1.53;;;1.30;;
26040;SDS011;13816;53.628;9.950;2023-07-28T17:58:56;2.03;;;1.57;;
26040;SDS011;13816;53.628;9.950;2023-07-28T18:01:58;1.73;;;1.47;;
26040;SDS011;13816;53.628;9.950;2023-07-28T18:05:26;2.00;;;1.47;;
26040;SDS011;13816;53.628;9.950;2023-07-28T18:08:00;1.63;;;1.53;;
26040;SDS011;13816;53.628;9.950;2023-07-28T18:10:59;2.07;;;1.67;;
26040;SDS011;13816;53.628;9.950;2023-07-28T18:14:06;1.77;;;1.67;;
26040;SDS011;13816;53.628;9.950;2023-07-28T18:16:56;3.23;;;1.80;;
26040;SDS011;13816;53.628;9.950;2023-07-28T18:19:44;1.97;;;1.77;;
26040;SDS011;13816;53.628;9.950;2023-07-28T18:22:14;2.00;;;1.60;;
26040;SDS011;13816;53.628;9.950;2023-07-28T18:25:58;1.87;;;1.60;;
26040;SDS011;13816;53.628;9.950;2023-07-28T18:28:35;4.33;;;2.07;;
26040;SDS011;13816;53.628;9.950;2023-07-28T18:31:34;5.40;;;1.90;;
26040;SDS011;13816;53.628;9.950;2023-07-28T18:34:27;2.90;;;2.07;;
26040;SDS011;13816;53.628;9.950;2023-07-28T18:40:11;5.80;;;2.00;;
26040;SDS011;13816;53.628;9.950;2023-07-28T18:58:29;2.23;;;1.60;;
26040;SDS011;13816;53.628;9.950;2023-07-28T19:04:09;2.27;;;1.93;;
26040;SDS011;13816;53.628;9.950;2023-07-28T19:06:42;3.80;;;2.20;;
26040;SDS011;13816;53.628;9.950;2023-07-28T19:09:14;2.80;;;2.10;;
26040;SDS011;13816;53.628;9.950;2023-07-28T19:11:43;8.10;;;2.20;;
26040;SDS011;13816;53.628;9.950;2023-07-28T19:14:19;1.80;;;1.70;;
26040;SDS011;13816;53.628;9.950;2023-07-28T19:16:49;2.10;;;1.90;;
26040;SDS011;13816;53.628;9.950;2023-07-28T19:19:22;5.90;;;1.97;;
26040;SDS011;13816;53.628;9.950;2023-07-28T19:21:53;2.10;;;1.90;;
26040;SDS011;13816;53.628;9.950;2023-07-28T19:24:22;8.73;;;2.33;;
26040;SDS011;13816;53.628;9.950;2023-07-28T19:26:54;2.53;;;2.00;;
26040;SDS011;13816;53.628;9.950;2023-07-28T19:29:30;2.43;;;2.23;;
26040;SDS011;13816;53.628;9.950;2023-07-28T19:32:00;2.57;;;2.33;;
26040;SDS011;13816;53.628;9.950;2023-07-28T19:34:28;3.27;;;2.20;;
26040;SDS011;13816;53.628;9.950;2023-07-28T19:37:00;5.77;;;2.37;;
26040;SDS011;13816;53.628;9.950;2023-07-28T19:39:28;3.13;;;2.80;;
26040;SDS011;13816;53.628;9.950;2023-07-28T19:41:57;2.60;;;2.40;;
26040;SDS011;13816;53.628;9.950;2023-07-28T19:44:31;2.43;;;2.23;;
26040;SDS011;13816;53.628;9.950;2023-07-28T19:47:08;3.43;;;2.80;;
26040;SDS011;13816;53.628;9.950;2023-07-28T19:49:47;2.70;;;2.50;;
26040;SDS011;13816;53.628;9.950;2023-07-28T19:57:05;3.17;;;2.60;;
26040;SDS011;13816;53.628;9.950;2023-07-28T19:59:34;4.57;;;3.03;;
26040;SDS011;13816;53.628;9.950;2023-07-28T20:02:05;3.43;;;2.43;;
26040;SDS011;13816;53.628;9.950;2023-07-28T20:04:33;3.07;;;2.73;;
26040;SDS011;13816;53.628;9.950;2023-07-28T20:07:01;4.17;;;2.40;;
26040;SDS011;13816;53.628;9.950;2023-07-28T20:09:29;2.83;;;2.53;;
26040;SDS011;13816;53.628;9.950;2023-07-28T20:11:59;2.87;;;2.57;;
26040;SDS011;13816;53.628;9.950;2023-07-28T20:14:27;4.97;;;2.77;;
26040;SDS011;13816;53.628;9.950;2023-07-28T20:16:58;3.60;;;2.90;;
26040;SDS011;13816;53.628;9.950;2023-07-28T20:19:29;4.20;;;3.30;;
26040;SDS011;13816;53.628;9.950;2023-07-28T20:21:56;5.80;;;3.30;;
26040;SDS011;13816;53.628;9.950;2023-07-28T20:24:24;4.07;;;2.93;;
26040;SDS011;13816;53.628;9.950;2023-07-28T20:26:55;3.97;;;3.40;;
26040;SDS011;13816;53.628;9.950;2023-07-28T20:29:22;3.60;;;3.10;;
26040;SDS011;13816;53.628;9.950;2023-07-28T20:31:50;4.07;;;2.90;;
26040;SDS011;13816;53.628;9.950;2023-07-28T20:34:19;4.27;;;3.50;;
26040;SDS011;13816;53.628;9.950;2023-07-28T20:36:47;3.63;;;3.33;;
26040;SDS011;13816;53.628;9.950;2023-07-28T20:39:14;5.30;;;3.67;;
26040;SDS011;13816;53.628;9.950;2023-07-28T20:41:42;4.03;;;3.70;;
26040;SDS011;13816;53.628;9.950;2023-07-28T20:44:09;4.30;;;3.57;;
26040;SDS011;13816;53.628;9.950;2023-07-28T20:46:36;3.20;;;2.90;;
26040;SDS011;13816;53.628;9.950;2023-07-28T20:49:04;4.17;;;3.70;;
26040;SDS011;13816;53.628;9.950;2023-07-28T20:51:32;5.07;;;3.50;;
26040;SDS011;13816;53.628;9.950;2023-07-28T20:53:59;4.70;;;4.30;;
26040;SDS011;13816;53.628;9.950;2023-07-28T20:56:27;9.30;;;4.20;;
26040;SDS011;13816;53.628;9.950;2023-07-28T20:59:01;7.50;;;4.20;;
26040;SDS011;13816;53.628;9.950;2023-07-28T21:01:28;8.00;;;5.30;;
26040;SDS011;13816;53.628;9.950;2023-07-28T21:04:03;4.67;;;4.20;;
26040;SDS011;13816;53.628;9.950;2023-07-28T21:06:31;5.20;;;4.70;;
26040;SDS011;13816;53.628;9.950;2023-07-28T21:08:59;4.93;;;4.43;;
26040;SDS011;13816;53.628;9.950;2023-07-28T21:11:26;6.50;;;4.70;;
26040;SDS011;13816;53.628;9.950;2023-07-28T21:13:53;6.03;;;4.70;;
26040;SDS011;13816;53.628;9.950;2023-07-28T21:16:21;5.37;;;4.83;;
26040;SDS011;13816;53.628;9.950;2023-07-28T21:18:48;5.50;;;4.97;;
26040;SDS011;13816;53.628;9.950;2023-07-28T21:21:15;6.83;;;4.70;;
26040;SDS011;13816;53.628;9.950;2023-07-28T21:23:43;5.77;;;4.97;;